Time;durP1;ratioP1;P1;durP2;ratioP2;P2;SDS_P1;SDS_P2;PMS_P1;PMS_P2;Temp;Humidity;BMP_temperature;BMP_pressure;BME280_temperature;BME280_humidity;BME280_pressure;Samples;Min_cycle;Max_cycle;Signal;HPM_P1;HPM_P2
2023/08/07 00:00:51;;;;;;;11.70;7.58;;;;;;;26.02;55.97;99305.63;1709483;80;21291;-57
2023/08/07 00:06:27;;;;;;;9.00;7.30;;;;;;;25.96;56.07;99297.55;1708948;79;21373;-58
2023/08/07 00:12:04;;;;;;;11.43;7.40;;;;;;;25.88;56.18;99292.05;1728887;79;21426;-57
2023/08/07 00:17:39;;;;;;;12.03;7.53;;;;;;;25.82;56.29;99291.87;1736205;80;21365;-58
2023/08/07 00:23:14;;;;;;;10.80;8.25;;;;;;;25.77;56.38;99285.48;1729689;78;21353;-58
2023/08/07 00:28:50;;;;;;;12.10;7.53;;;;;;;25.72;56.49;99282.77;1702937;80;21721;-58
2023/08/07 00:31:56;;;;;;;10.75;7.08;;;;;;;25.69;56.54;99282.79;1701923;80;21303;-56
2023/08/07 00:34:55;;;;;;;8.38;7.10;;;;;;;25.66;56.58;99276.94;1720683;77;21336;-56
2023/08/07 00:40:31;;;;;;;10.00;6.97;;;;;;;25.59;56.71;99277.89;1735886;78;21366;-57
2023/08/07 00:46:06;;;;;;;8.53;7.33;;;;;;;25.54;56.78;99279.36;1717746;79;21421;-58
2023/08/07 00:49:12;;;;;;;10.68;7.40;;;;;;;25.50;56.84;99272.70;1735973;80;21378;-57
2023/08/07 00:54:47;;;;;;;10.58;7.42;;;;;;;25.44;56.95;99269.66;1720663;79;21378;-57
2023/08/07 00:57:54;;;;;;;12.20;7.78;;;;;;;25.41;57.00;99266.06;1733451;78;21386;-57
2023/08/07 01:05:58;;;;;;;10.85;7.33;;;;;;;25.32;57.21;99263.08;1736002;80;21449;-58
2023/08/07 01:15:05;;;;;;;9.47;7.17;;;;;;;25.27;57.34;99248.28;1695164;80;21358;-56
2023/08/07 01:23:10;;;;;;;12.23;6.78;;;;;;;25.15;57.52;99245.89;1698359;80;21228;-57
2023/08/07 01:26:15;;;;;;;10.05;7.60;;;;;;;25.14;57.54;99243.39;1696682;80;21847;-56
2023/08/07 01:34:20;;;;;;;12.33;7.08;;;;;;;25.05;57.68;99242.64;1732172;79;21855;-58
2023/08/07 01:39:57;;;;;;;13.18;7.15;;;;;;;25.01;57.78;99242.14;1733713;79;21898;-58
2023/08/07 01:45:35;;;;;;;8.38;6.62;;;;;;;24.95;57.85;99241.38;1726093;79;21418;-58
2023/08/07 01:51:08;;;;;;;8.03;7.05;;;;;;;24.89;57.96;99232.73;1730076;79;21378;-58
2023/08/07 01:56:43;;;;;;;10.93;7.20;;;;;;;24.85;58.03;99235.88;1731323;78;21373;-58
2023/08/07 02:02:20;;;;;;;9.20;6.78;;;;;;;24.82;58.10;99232.83;1733912;78;21417;-57
2023/08/07 02:07:56;;;;;;;13.62;6.83;;;;;;;24.78;58.22;99219.98;1729197;79;21442;-57
2023/08/07 02:16:03;;;;;;;7.92;6.20;;;;;;;24.71;58.31;99219.52;1728598;78;21378;-59
2023/08/07 02:21:39;;;;;;;10.53;7.22;;;;;;;24.67;58.38;99217.61;1744728;79;21417;-57
2023/08/07 02:27:15;;;;;;;10.00;6.53;;;;;;;24.66;58.46;99212.56;1719337;79;21353;-58
2023/08/07 02:32:51;;;;;;;9.58;6.85;;;;;;;24.63;58.54;99215.92;1732584;80;21441;-57
2023/08/07 02:38:26;;;;;;;11.68;6.67;;;;;;;24.63;58.59;99210.88;1721960;79;21445;-58
2023/08/07 02:44:04;;;;;;;9.48;6.12;;;;;;;24.62;58.64;99210.63;1722180;80;21361;-58
2023/08/07 02:49:40;;;;;;;12.33;6.95;;;;;;;24.64;58.69;99215.37;1721924;79;21373;-56
2023/08/07 02:55:15;;;;;;;11.30;6.58;;;;;;;24.64;58.74;99209.19;1725725;79;21522;-57
2023/08/07 03:00:51;;;;;;;11.38;6.70;;;;;;;24.67;58.76;99205.83;1696660;78;21782;-57
2023/08/07 03:03:57;;;;;;;12.55;6.58;;;;;;;24.70;58.78;99198.82;1688784;80;21215;-58
2023/08/07 03:09:30;;;;;;;12.07;6.65;;;;;;;24.76;58.79;99197.07;1688920;82;21273;-57
2023/08/07 03:12:37;;;;;;;14.38;6.90;;;;;;;24.78;58.80;99191.98;1681197;81;21478;-57
2023/08/07 03:18:09;;;;;;;12.05;6.55;;;;;;;24.86;58.81;99186.32;1660692;82;21757;-57
2023/08/07 03:21:15;;;;;;;14.87;7.05;;;;;;;24.88;58.80;99180.69;1689697;81;21403;-56
2023/08/07 03:26:51;;;;;;;14.65;6.80;;;;;;;24.96;58.76;99170.22;1687828;83;21492;-57
2023/08/07 03:34:56;;;;;;;13.05;6.47;;;;;;;25.11;58.74;99159.40;1690409;82;21245;-57
2023/08/07 03:38:01;;;;;;;13.30;6.75;;;;;;;25.17;58.69;99181.16;1676451;81;21240;-59
2023/08/07 03:46:04;;;;;;;11.68;6.83;;;;;;;25.33;58.53;99186.28;1688844;82;21379;-57
2023/08/07 03:51:40;;;;;;;15.63;6.70;;;;;;;25.42;58.44;99177.48;1677585;83;21254;-57
2023/08/07 03:57:16;;;;;;;12.60;6.58;;;;;;;25.50;58.31;99174.59;1690330;82;21261;-58
2023/08/07 04:05:27;;;;;;;13.50;7.78;;;;;;;25.63;58.20;99167.66;1680804;81;21387;-58
2023/08/07 04:11:12;;;;;;;15.23;7.12;;;;;;;25.74;58.13;99172.53;1686478;82;21372;-58
2023/08/07 04:14:18;;;;;;;14.33;6.97;;;;;;;25.78;58.09;99165.19;1687062;82;21395;-58
2023/08/07 04:17:26;;;;;;;11.63;6.60;;;;;;;25.85;58.05;99164.22;1682095;80;21241;-58
2023/08/07 04:20:34;;;;;;;14.87;6.97;;;;;;;25.94;58.03;99168.83;1683247;82;21287;-58
2023/08/07 04:23:40;;;;;;;13.50;6.78;;;;;;;26.01;57.96;99165.67;1702470;80;21454;-58
2023/08/07 04:29:15;;;;;;;11.57;7.10;;;;;;;26.12;57.85;99153.14;1701932;79;21260;-57
2023/08/07 04:37:22;;;;;;;11.78;7.25;;;;;;;26.27;57.68;99160.72;1673420;79;21331;-57
2023/08/07 04:42:57;;;;;;;12.90;6.90;;;;;;;26.36;57.59;99141.20;1728120;78;21243;-57
2023/08/07 04:46:03;;;;;;;14.85;7.08;;;;;;;26.41;57.50;99146.73;1721925;79;21223;-57
2023/08/07 04:51:36;;;;;;;14.65;6.87;;;;;;;26.54;57.39;99134.70;1696508;80;21236;-56
2023/08/07 04:57:12;;;;;;;12.60;6.83;;;;;;;26.66;57.32;99133.64;1711294;81;21707;-59
2023/08/07 05:02:49;;;;;;;13.18;6.70;;;;;;;26.82;57.24;99138.38;1698966;77;21306;-58
2023/08/07 05:08:26;;;;;;;16.20;8.10;;;;;;;27.01;57.12;99146.96;1686211;79;21303;-56
2023/08/07 05:14:04;;;;;;;19.20;7.70;;;;;;;27.25;56.98;99164.43;1699926;80;21829;-55
2023/08/07 05:19:39;;;;;;;17.55;7.03;;;;;;;27.50;56.85;99150.41;1651670;80;21244;-56
2023/08/07 05:22:47;;;;;;;14.65;7.75;;;;;;;27.62;56.81;99157.13;1675067;80;21341;-56
2023/08/07 05:25:55;;;;;;;14.70;7.00;;;;;;;27.76;56.70;99146.70;1664380;80;21563;-56
2023/08/07 05:28:39;;;;;;;19.57;7.17;;;;;;;27.88;56.54;99150.92;1679289;80;22092;-57
2023/08/07 05:31:44;;;;;;;12.63;6.85;;;;;;;27.93;56.38;99154.47;1689975;80;21262;-53
2023/08/07 05:34:50;;;;;;;18.02;7.25;;;;;;;27.98;56.19;99149.28;1693769;80;21222;-54
2023/08/07 05:37:57;;;;;;;15.00;6.60;;;;;;;27.98;55.97;99133.23;1712603;80;21235;-54
2023/08/07 05:41:03;;;;;;;15.10;6.35;;;;;;;27.98;55.81;99145.06;1671389;78;21839;-57
2023/08/07 05:46:39;;;;;;;12.98;7.12;;;;;;;27.95;55.61;99128.82;1694511;79;21808;-59
2023/08/07 05:52:15;;;;;;;19.77;7.33;;;;;;;28.01;55.44;99126.97;1691383;79;21638;-56
2023/08/07 05:57:50;;;;;;;14.70;6.90;;;;;;;28.08;55.26;99113.86;1702050;80;21304;-56
2023/08/07 06:03:26;;;;;;;17.60;7.08;;;;;;;28.35;55.22;99112.30;1691669;82;21348;-56
2023/08/07 06:09:06;;;;;;;16.05;7.03;;;;;;;28.56;55.02;99104.98;1696934;80;21680;-56
2023/08/07 06:14:40;;;;;;;19.23;7.22;;;;;;;28.81;54.91;99108.48;1720079;81;21254;-56
2023/08/07 06:17:45;;;;;;;19.57;7.45;;;;;;;28.93;54.82;99102.48;1703538;80;21298;-58
2023/08/07 06:23:21;;;;;;;19.67;7.92;;;;;;;29.05;54.33;99101.86;1673197;81;21311;-57
2023/08/07 06:26:27;;;;;;;18.42;7.78;;;;;;;29.10;54.07;99096.07;1664822;80;21215;-58
2023/08/07 06:32:04;;;;;;;17.02;7.40;;;;;;;29.24;53.86;99096.75;1696413;80;21271;-57
2023/08/07 06:37:40;;;;;;;13.72;6.97;;;;;;;29.36;53.83;99101.19;1658938;83;21250;-58
2023/08/07 06:40:45;;;;;;;15.78;7.35;;;;;;;29.40;53.59;99106.41;1694888;80;21290;-59
2023/08/07 06:46:24;;;;;;;22.20;7.62;;;;;;;29.39;53.49;99099.69;1707971;78;21288;-58
2023/08/07 06:51:57;;;;;;;17.62;7.20;;;;;;;29.40;53.35;99107.81;1698130;80;21837;-58
2023/08/07 06:57:31;;;;;;;15.93;8.00;;;;;;;29.39;53.18;99107.58;1693103;79;21274;-60
2023/08/07 07:03:07;;;;;;;13.18;7.70;;;;;;;29.38;53.19;99086.19;1697331;81;21259;-59
2023/08/07 07:08:43;;;;;;;22.02;7.58;;;;;;;29.47;53.25;99077.72;1692356;80;21996;-59
2023/08/07 07:11:50;;;;;;;27.22;9.68;;;;;;;29.52;53.26;99072.75;1694445;79;21234;-58
2023/08/07 07:19:56;;;;;;;18.73;7.92;;;;;;;29.78;53.31;99076.41;1706220;80;21236;-58
2023/08/07 07:25:34;;;;;;;17.62;8.35;;;;;;;29.96;53.14;99073.83;1719986;80;21247;-58
2023/08/07 07:31:11;;;;;;;24.72;7.92;;;;;;;30.19;52.96;99073.05;1647634;81;21268;-58
2023/08/07 07:36:48;;;;;;;22.60;7.42;;;;;;;30.41;52.77;99093.42;1702826;79;21253;-58
2023/08/07 07:42:24;;;;;;;14.95;7.85;;;;;;;30.49;52.34;99090.34;1704582;80;21249;-57
2023/08/07 07:45:30;;;;;;;25.97;8.18;;;;;;;30.53;52.24;99093.56;1729803;80;21186;-57
2023/08/07 07:51:10;;;;;;;21.02;9.43;;;;;;;30.60;52.09;99100.11;1677994;80;21247;-58
2023/08/07 07:54:08;;;;;;;36.45;8.38;;;;;;;30.57;51.98;99090.30;1646081;81;21188;-58
2023/08/07 07:57:14;;;;;;;35.25;8.08;;;;;;;30.59;51.91;99096.45;1689025;80;21787;-59
2023/08/07 08:02:53;;;;;;;23.62;8.50;;;;;;;30.64;51.80;99106.16;1694912;80;21295;-57
2023/08/07 08:08:32;;;;;;;19.55;8.25;;;;;;;30.79;51.86;99111.86;1697994;79;21287;-58
2023/08/07 08:11:43;;;;;;;20.15;8.18;;;;;;;30.84;51.82;99125.81;1653829;82;21791;-59
2023/08/07 08:14:51;;;;;;;19.87;7.78;;;;;;;30.92;51.80;99119.88;1695754;80;22139;-60
2023/08/07 08:17:59;;;;;;;19.23;8.33;;;;;;;31.05;51.83;99120.23;1692122;80;21250;-59
2023/08/07 08:21:06;;;;;;;16.97;8.13;;;;;;;31.16;51.71;99115.23;1674736;81;21868;-57
2023/08/07 08:24:13;;;;;;;21.57;9.63;;;;;;;31.33;51.70;99132.73;1697550;79;21759;-58
2023/08/07 08:27:21;;;;;;;18.10;9.00;;;;;;;31.44;51.53;99140.48;1683771;81;21284;-59
2023/08/07 08:33:05;;;;;;;19.98;8.98;;;;;;;31.55;51.27;99133.25;1675072;81;21233;-58
2023/08/07 08:36:14;;;;;;;15.83;8.93;;;;;;;31.64;51.18;99145.91;1680147;81;21283;-58
2023/08/07 08:41:54;;;;;;;25.27;10.70;;;;;;;31.78;50.97;99157.20;1698345;80;21766;-58
2023/08/07 08:52:39;;;;;;;15.45;8.15;;;;;;;32.16;50.59;99161.32;1697668;78;21243;-58
2023/08/07 08:55:47;;;;;;;13.58;8.13;;;;;;;32.20;50.46;99165.71;1664852;82;21232;-60
2023/08/07 09:01:22;;;;;;;13.60;7.72;;;;;;;32.17;50.11;99167.25;1690224;78;21262;-56
2023/08/07 09:09:27;;;;;;;16.00;8.38;;;;;;;32.20;49.94;99165.13;1684552;82;21183;-59
2023/08/07 09:15:05;;;;;;;11.25;7.87;;;;;;;32.23;49.85;99170.09;1710001;80;21300;-58
2023/08/07 09:18:12;;;;;;;11.68;7.85;;;;;;;32.20;49.73;99162.87;1622286;83;21258;-59
2023/08/07 09:23:48;;;;;;;17.07;8.78;;;;;;;32.17;49.69;99160.16;1666921;81;21287;-58
2023/08/07 09:26:54;;;;;;;14.78;8.98;;;;;;;32.23;49.83;99170.09;1642405;81;21251;-58
2023/08/07 09:32:28;;;;;;;13.40;7.83;;;;;;;32.50;50.02;99169.53;1674810;79;21793;-57
2023/08/07 09:35:34;;;;;;;12.25;8.00;;;;;;;32.47;49.92;99165.14;1660503;80;21238;-57
2023/08/07 09:41:11;;;;;;;15.60;13.10;;;;;;;32.40;49.78;99174.20;1694858;80;21288;-58
2023/08/07 09:46:51;;;;;;;11.70;8.05;;;;;;;32.58;50.02;99175.70;1695101;80;21576;-57
2023/08/07 09:49:57;;;;;;;15.08;9.93;;;;;;;32.58;49.88;99177.11;1716472;78;21240;-57
2023/08/07 09:52:41;;;;;;;11.20;8.00;;;;;;;32.52;49.84;99179.94;1622059;83;21328;-58
2023/08/07 09:58:20;;;;;;;10.85;7.35;;;;;;;32.42;49.74;99175.27;1675914;81;21245;-58
2023/08/07 10:03:58;;;;;;;12.95;7.65;;;;;;;32.32;49.77;99182.17;1705161;79;21827;-58
2023/08/07 10:07:05;;;;;;;10.93;7.40;;;;;;;32.31;49.83;99183.94;1701892;81;21280;-58
2023/08/07 10:10:11;;;;;;;12.23;6.85;;;;;;;32.39;49.97;99182.48;1686322;81;21646;-58
2023/08/07 10:18:17;;;;;;;8.15;6.65;;;;;;;32.85;50.10;99185.56;1718354;79;21730;-57
2023/08/07 10:26:22;;;;;;;9.93;6.10;;;;;;;32.83;49.89;99186.50;1701868;81;22026;-57
2023/08/07 10:31:59;;;;;;;8.95;5.60;;;;;;;33.03;49.68;99195.56;1711216;79;21203;-57
2023/08/07 10:37:50;;;;;;;9.30;5.05;;;;;;;33.01;49.31;99197.92;1705111;80;22109;-58
2023/08/07 10:41:16;;;;;;;11.20;5.15;;;;;;;33.07;49.25;99197.34;1700709;78;21619;-58
2023/08/07 10:44:33;;;;;;;8.23;4.95;;;;;;;33.26;49.08;99206.11;1707161;80;21229;-56
2023/08/07 10:52:41;;;;;;;11.12;6.00;;;;;;;33.60;48.46;99210.52;1707703;80;21306;-60
2023/08/07 10:58:40;;;;;;;6.78;4.12;;;;;;;33.24;47.85;99218.39;1670666;81;21736;-63
2023/08/07 11:01:52;;;;;;;6.72;4.28;;;;;;;32.92;47.59;99221.31;1664977;82;21261;-60
2023/08/07 11:10:03;;;;;;;9.98;4.75;;;;;;;32.32;47.42;99238.03;1651974;83;21281;-62
2023/08/07 11:13:08;;;;;;;6.80;4.30;;;;;;;32.36;47.46;99234.15;1658908;81;21332;-60
2023/08/07 11:16:15;;;;;;;10.23;4.47;;;;;;;32.54;47.62;99230.60;1663190;81;21816;-59
2023/08/07 11:21:51;;;;;;;6.40;4.53;;;;;;;32.97;47.67;99229.56;1685518;80;21291;-60
2023/08/07 11:25:00;;;;;;;11.90;4.83;;;;;;;33.07;47.53;99234.80;1679614;82;21241;-61
2023/08/07 11:28:08;;;;;;;8.08;4.72;;;;;;;33.13;47.32;99232.80;1651437;80;21243;-60
2023/08/07 11:30:55;;;;;;;8.10;5.20;;;;;;;33.14;47.14;99228.77;1695704;80;21878;-58
2023/08/07 11:34:05;;;;;;;8.40;4.75;;;;;;;33.09;46.88;99230.41;1652526;81;21288;-60
2023/08/07 11:37:13;;;;;;;10.03;4.50;;;;;;;33.01;46.65;99235.62;1686088;80;21251;-59
2023/08/07 11:40:21;;;;;;;6.70;4.50;;;;;;;33.11;46.74;99230.90;1699969;81;21238;-58
2023/08/07 11:43:28;;;;;;;10.25;5.87;;;;;;;33.26;46.76;99233.64;1684598;81;21272;-59
2023/08/07 11:46:39;;;;;;;9.88;5.92;;;;;;;33.33;46.56;99234.70;1692280;80;21316;-58
2023/08/07 11:49:48;;;;;;;10.03;5.80;;;;;;;33.33;46.21;99231.87;1708538;80;21779;-59
2023/08/07 11:55:24;;;;;;;10.15;5.80;;;;;;;33.30;45.83;99228.32;1694815;80;21323;-60
2023/08/07 12:01:00;;;;;;;10.50;5.05;;;;;;;33.00;45.23;99236.79;1712746;80;21607;-59
2023/08/07 12:04:17;;;;;;;8.78;5.17;;;;;;;32.92;45.19;99238.33;1727500;80;21227;-61
2023/08/07 12:07:26;;;;;;;7.12;4.42;;;;;;;33.00;45.28;99237.37;1653459;81;21320;-61
2023/08/07 12:10:32;;;;;;;8.90;4.53;;;;;;;33.14;45.36;99242.15;1720180;80;21793;-60
2023/08/07 12:13:38;;;;;;;9.13;3.60;;;;;;;33.21;45.16;99244.64;1700987;80;21247;-61
2023/08/07 12:16:44;;;;;;;3.70;2.60;;;;;;;33.27;44.87;99243.80;1697615;80;21260;-60
2023/08/07 12:22:19;;;;;;;4.42;2.83;;;;;;;33.24;44.15;99261.53;1682812;78;21260;-62
2023/08/07 12:25:25;;;;;;;7.83;2.80;;;;;;;33.19;43.91;99258.92;1657343;81;21792;-60
2023/08/07 12:30:59;;;;;;;7.17;3.20;;;;;;;33.07;43.26;99255.49;1700189;78;21144;-61
2023/08/07 12:36:33;;;;;;;4.28;2.70;;;;;;;33.03;42.78;99263.64;1698752;78;21232;-59
2023/08/07 12:42:09;;;;;;;3.42;2.70;;;;;;;33.00;42.34;99260.90;1678759;83;21243;-60
2023/08/07 12:47:46;;;;;;;8.30;3.20;;;;;;;33.06;41.96;99262.94;1702232;80;21318;-57
2023/08/07 12:50:52;;;;;;;7.75;3.00;;;;;;;33.06;41.82;99271.45;1693454;80;21375;-59
2023/08/07 12:56:28;;;;;;;8.08;2.85;;;;;;;33.05;41.46;99271.19;1689545;80;21213;-61
2023/08/07 13:02:02;;;;;;;4.28;3.00;;;;;;;33.03;41.25;99280.66;1701140;81;21246;-60
2023/08/07 13:05:12;;;;;;;6.85;3.10;;;;;;;32.99;41.11;99279.69;1694664;80;21232;-58
2023/08/07 13:10:45;;;;;;;6.10;3.83;;;;;;;32.97;40.98;99290.55;1702032;79;21187;-59
2023/08/07 13:16:24;;;;;;;9.23;4.58;;;;;;;32.70;40.69;99286.28;1686484;79;21219;-60
2023/08/07 13:19:29;;;;;;;5.40;3.60;;;;;;;32.66;40.77;99285.34;1697266;79;21283;-59
2023/08/07 13:25:19;;;;;;;5.72;3.37;;;;;;;32.84;40.74;99295.31;1680607;81;21915;-58
2023/08/07 13:28:26;;;;;;;4.62;2.72;;;;;;;32.93;40.69;99306.61;1705248;79;21350;-59
2023/08/07 13:31:33;;;;;;;3.65;2.77;;;;;;;32.94;40.54;99296.34;1697716;78;21229;-57
2023/08/07 13:34:39;;;;;;;5.65;2.60;;;;;;;32.96;40.48;99299.66;1685406;80;21819;-60
2023/08/07 13:37:45;;;;;;;4.35;2.67;;;;;;;32.98;40.37;99306.41;1685442;80;21342;-58
2023/08/07 13:40:51;;;;;;;7.25;2.42;;;;;;;32.94;40.24;99310.52;1703838;80;21867;-60
2023/08/07 13:46:30;;;;;;;11.95;8.58;;;;;;;32.79;39.89;99329.55;1700114;79;21303;-58
2023/08/07 13:49:37;;;;;;;9.40;4.40;;;;;;;32.70;39.71;99320.30;1712558;79;21231;-56
2023/08/07 13:55:12;;;;;;;5.87;2.85;;;;;;;32.79;39.68;99328.74;1739519;79;21243;-54
2023/08/07 14:00:49;;;;;;;6.05;3.30;;;;;;;32.88;39.58;99336.57;1696463;80;21278;-56
2023/08/07 14:06:24;;;;;;;4.58;3.00;;;;;;;32.68;39.42;99338.84;1711582;79;21232;-56
2023/08/07 14:12:00;;;;;;;5.47;2.98;;;;;;;32.58;39.33;99343.51;1705265;80;21791;-56
2023/08/07 14:17:35;;;;;;;10.60;4.17;;;;;;;32.35;39.31;99350.06;1656776;81;22285;-54
2023/08/07 14:23:12;;;;;;;5.78;3.35;;;;;;;32.08;39.38;99349.76;1720416;79;21220;-54
2023/08/07 14:28:49;;;;;;;3.52;2.87;;;;;;;32.03;39.48;99355.84;1686497;81;21305;-56
2023/08/07 14:31:55;;;;;;;5.53;2.87;;;;;;;32.03;39.51;99357.88;1697503;80;21251;-56
2023/08/07 14:40:00;;;;;;;5.42;3.27;;;;;;;31.90;39.51;99370.26;1709545;81;21290;-57
2023/08/07 14:45:37;;;;;;;5.30;2.67;;;;;;;31.64;39.52;99379.41;1678499;81;21229;-54
2023/08/07 14:51:11;;;;;;;6.25;3.25;;;;;;;31.59;39.66;99382.41;1703265;80;21871;-56
2023/08/07 14:56:45;;;;;;;5.30;3.27;;;;;;;31.46;39.74;99396.20;1671266;82;21241;-55
2023/08/07 15:02:20;;;;;;;6.80;3.70;;;;;;;31.28;39.86;99407.27;1709876;80;21754;-56
2023/08/07 15:05:27;;;;;;;9.78;3.05;;;;;;;31.28;39.99;99420.00;1698564;80;21725;-57
2023/08/07 15:11:00;;;;;;;5.53;2.70;;;;;;;31.00;40.13;99430.02;1705806;80;21201;-57
2023/08/07 15:14:07;;;;;;;12.53;3.30;;;;;;;30.80;40.18;99460.33;1702005;81;21281;-55
2023/08/07 15:19:43;;;;;;;4.47;2.58;;;;;;;30.17;40.42;99461.64;1705338;80;21793;-57
2023/08/07 15:25:18;;;;;;;5.60;2.90;;;;;;;29.79;40.92;99487.28;1712080;79;21223;-57
2023/08/07 15:30:57;;;;;;;10.72;2.83;;;;;;;29.56;41.36;99490.43;1639187;82;21264;-56
2023/08/07 15:39:03;;;;;;;4.08;2.30;;;;;;;29.41;41.67;99512.80;1653445;82;21262;-55
2023/08/07 15:44:39;;;;;;;6.83;3.83;;;;;;;29.23;41.77;99529.31;1711827;80;21619;-57
2023/08/07 15:50:18;;;;;;;3.98;2.50;;;;;;;29.37;41.81;99527.87;1713569;81;21222;-56
2023/08/07 15:53:15;;;;;;;7.60;2.20;;;;;;;29.22;41.84;99526.25;1695921;80;21260;-55
2023/08/07 15:58:51;;;;;;;4.78;2.27;;;;;;;28.91;42.15;99532.30;1683817;80;21345;-55
2023/08/07 16:01:57;;;;;;;4.10;2.47;;;;;;;28.90;42.24;99534.86;1696716;80;22461;-56
2023/08/07 16:07:33;;;;;;;3.58;2.22;;;;;;;28.95;42.22;99548.84;1701361;80;21243;-55
2023/08/07 16:13:08;;;;;;;8.05;3.45;;;;;;;28.78;42.60;99556.53;1698263;80;21240;-55
2023/08/07 16:21:15;;;;;;;5.12;2.60;;;;;;;28.78;42.63;99578.26;1653868;80;21844;-55
2023/08/07 16:26:49;;;;;;;7.12;2.58;;;;;;;28.58;42.64;99595.00;1663039;81;21259;-56
2023/08/07 16:29:58;;;;;;;5.28;3.15;;;;;;;28.58;42.64;99595.00;1677122;79;21260;-55
2023/08/07 16:33:05;;;;;;;4.70;3.33;;;;;;;28.19;43.14;99603.08;1675230;81;21291;-56
2023/08/07 16:35:48;;;;;;;3.92;2.92;;;;;;;28.19;43.14;99603.08;1672632;81;21218;-56
2023/08/07 16:38:17;;;;;;;4.30;3.12;;;;;;;28.04;43.00;99609.53;1649967;82;21293;-56
2023/08/07 16:41:22;;;;;;;7.72;4.60;;;;;;;27.89;43.12;99607.00;1652234;82;21252;-56
2023/08/07 16:44:28;;;;;;;6.60;3.42;;;;;;;27.71;43.31;99619.92;1674380;80;21384;-57
2023/08/07 16:47:33;;;;;;;5.60;4.10;;;;;;;27.55;43.55;99624.97;1682479;81;21209;-57
2023/08/07 16:50:38;;;;;;;3.70;2.75;;;;;;;27.38;43.76;99637.33;1678078;81;21276;-56
2023/08/07 16:53:46;;;;;;;5.05;3.37;;;;;;;27.25;43.99;99645.07;1710043;82;21390;-56
2023/08/07 16:59:22;;;;;;;8.60;4.20;;;;;;;27.03;44.52;99649.03;1672414;80;21323;-57
2023/08/07 17:04:59;;;;;;;8.58;4.00;;;;;;;26.84;44.94;99661.36;1663043;81;21280;-56
2023/08/07 17:10:35;;;;;;;7.92;5.28;;;;;;;26.68;45.42;99665.48;1663890;82;21267;-56
2023/08/07 17:16:11;;;;;;;8.78;5.60;;;;;;;26.50;45.91;99690.91;1710517;79;21796;-57
2023/08/07 17:21:45;;;;;;;5.42;4.30;;;;;;;26.34;46.38;99699.20;1704602;80;21240;-57
2023/08/07 17:27:20;;;;;;;7.12;3.67;;;;;;;26.17;46.85;99703.87;1677353;80;21327;-56
2023/08/07 17:32:58;;;;;;;7.35;3.02;;;;;;;26.02;47.28;99711.58;1663455;79;21247;-56
2023/08/07 17:38:36;;;;;;;4.30;3.62;;;;;;;25.84;47.76;99718.70;1689875;79;21272;-56
2023/08/07 17:44:12;;;;;;;6.95;3.33;;;;;;;25.68;48.24;99737.30;1716320;80;21342;-57
2023/08/07 17:52:18;;;;;;;12.88;5.22;;;;;;;25.47;48.89;99759.01;1697488;79;21358;-57
2023/08/07 17:57:54;;;;;;;13.15;4.90;;;;;;;25.34;49.34;99763.02;1711236;79;21235;-57
2023/08/07 18:03:31;;;;;;;7.10;3.70;;;;;;;25.18;49.74;99769.19;1720043;79;21787;-55
2023/08/07 18:09:05;;;;;;;4.28;3.17;;;;;;;25.03;50.12;99779.91;1692276;82;21252;-55
2023/08/07 18:12:10;;;;;;;8.38;3.75;;;;;;;24.98;50.29;99777.67;1708134;80;21213;-56
2023/08/07 18:20:16;;;;;;;6.40;3.27;;;;;;;24.79;50.88;99802.64;1684970;81;21284;-56
2023/08/07 18:25:51;;;;;;;6.15;2.87;;;;;;;24.67;51.26;99811.88;1704442;79;21203;-56
2023/08/07 18:31:30;;;;;;;3.27;2.05;;;;;;;24.56;51.62;99826.16;1681278;80;21247;-56
2023/08/07 18:39:35;;;;;;;7.28;2.70;;;;;;;24.35;51.99;99835.10;1713730;79;21263;-58
2023/08/07 18:45:09;;;;;;;7.70;4.12;;;;;;;24.20;52.26;99833.67;1637354;82;21221;-56
2023/08/07 18:48:15;;;;;;;12.68;5.25;;;;;;;24.14;52.38;99834.80;1682561;81;21232;-56
2023/08/07 18:51:21;;;;;;;13.03;6.65;;;;;;;24.08;52.48;99844.84;1674913;82;21892;-56
2023/08/07 18:56:56;;;;;;;13.58;5.60;;;;;;;23.94;52.82;99859.89;1684374;81;21267;-57
2023/08/07 19:02:33;;;;;;;8.53;2.10;;;;;;;23.82;53.06;99859.28;1677354;81;21271;-57
2023/08/07 19:08:08;;;;;;;4.17;1.87;;;;;;;23.69;53.32;99870.15;1650289;82;21237;-57
2023/08/07 19:13:44;;;;;;;3.02;1.80;;;;;;;23.60;53.56;99869.82;1684756;81;21230;-56
2023/08/07 19:19:21;;;;;;;4.97;2.10;;;;;;;23.48;53.77;99874.81;1698043;78;21224;-57
2023/08/07 19:22:30;;;;;;;3.87;1.90;;;;;;;23.44;53.88;99879.24;1684973;81;21249;-57
2023/08/07 19:25:12;;;;;;;3.17;1.70;;;;;;;23.39;54.01;99886.20;1694084;80;21950;-56
2023/08/07 19:28:20;;;;;;;7.12;2.10;;;;;;;23.35;54.10;99891.52;1702347;81;21345;-56
2023/08/07 19:31:27;;;;;;;4.47;2.27;;;;;;;23.30;54.18;99899.86;1690120;80;21263;-59
2023/08/07 19:37:04;;;;;;;4.72;2.70;;;;;;;23.17;54.28;99916.20;1692633;79;21777;-56
2023/08/07 19:42:42;;;;;;;8.78;3.90;;;;;;;23.06;54.41;99914.45;1696415;78;21266;-55
2023/08/07 19:50:47;;;;;;;6.28;3.40;;;;;;;22.95;54.68;99922.46;1689641;81;21777;-57
2023/08/07 19:56:24;;;;;;;9.50;4.45;;;;;;;22.86;54.76;99926.33;1693558;79;21368;-58
2023/08/07 20:02:02;;;;;;;8.95;4.90;;;;;;;22.75;54.81;99927.34;1698344;80;21380;-56
2023/08/07 20:07:37;;;;;;;11.18;6.78;;;;;;;22.61;54.91;99932.23;1674810;80;21224;-56
2023/08/07 20:13:12;;;;;;;16.20;8.58;;;;;;;22.49;55.06;99929.56;1706215;81;21579;-57
2023/08/07 20:18:49;;;;;;;16.65;9.45;;;;;;;22.39;55.22;99934.22;1700186;80;21223;-57
2023/08/07 20:24:26;;;;;;;23.90;8.83;;;;;;;22.29;55.39;99944.71;1703865;80;21257;-56
2023/08/07 20:30:02;;;;;;;9.75;5.45;;;;;;;22.18;55.50;99943.73;1678122;80;21276;-56
2023/08/07 20:35:38;;;;;;;6.80;3.70;;;;;;;22.06;55.65;99950.56;1708951;81;21247;-56
2023/08/07 20:41:13;;;;;;;4.22;2.50;;;;;;;21.97;55.85;99963.28;1711555;80;21381;-56
2023/08/07 20:44:09;;;;;;;7.00;2.50;;;;;;;21.93;55.94;99960.17;1709838;78;22581;-56
2023/08/07 20:49:44;;;;;;;5.20;1.80;;;;;;;21.84;56.14;99967.31;1704532;79;21247;-56
2023/08/07 20:55:20;;;;;;;3.05;1.70;;;;;;;21.74;56.26;99971.89;1708638;81;21361;-57
2023/08/07 20:58:25;;;;;;;2.55;1.60;;;;;;;21.70;56.37;99973.48;1691916;80;21375;-56
2023/08/07 21:04:01;;;;;;;2.58;1.50;;;;;;;21.56;56.51;99977.21;1708446;79;21348;-57
2023/08/07 21:09:37;;;;;;;1.62;1.32;;;;;;;21.44;56.75;99982.03;1701766;79;21629;-57
2023/08/07 21:15:12;;;;;;;3.83;2.30;;;;;;;21.36;56.96;99992.20;1711510;79;21515;-57
2023/08/07 21:18:36;;;;;;;3.05;1.55;;;;;;;21.34;57.06;99998.61;1702006;78;21492;-56
2023/08/07 21:21:43;;;;;;;2.35;1.37;;;;;;;21.30;57.16;100003.52;1699537;79;21709;-55
2023/08/07 21:24:49;;;;;;;1.77;1.40;;;;;;;21.25;57.25;100007.08;1681964;79;21424;-57
2023/08/07 21:30:21;;;;;;;3.58;1.40;;;;;;;21.18;57.48;100000.00;1678634;80;21776;-56
2023/08/07 21:33:28;;;;;;;2.50;1.80;;;;;;;21.17;57.57;100003.32;1678715;80;21347;-56
2023/08/07 21:39:04;;;;;;;3.25;1.52;;;;;;;21.09;57.71;100012.66;1671462;81;21411;-57
2023/08/07 21:44:38;;;;;;;1.55;1.42;;;;;;;21.00;57.84;100009.45;1644253;82;23224;-56
2023/08/07 21:47:44;;;;;;;2.85;1.60;;;;;;;20.98;57.91;100013.59;1705395;80;21899;-56
2023/08/07 21:53:20;;;;;;;2.15;1.42;;;;;;;20.90;58.07;100003.66;1700720;80;21436;-56
2023/08/07 21:58:57;;;;;;;3.20;1.70;;;;;;;20.83;58.23;100003.53;1709674;80;21429;-56
2023/08/07 22:04:30;;;;;;;2.52;1.70;;;;;;;20.76;58.42;100005.09;1705864;80;21735;-56
2023/08/07 22:10:05;;;;;;;5.05;1.60;;;;;;;20.70;58.61;100020.00;1705374;80;21406;-56
2023/08/07 22:13:12;;;;;;;3.00;1.75;;;;;;;20.67;58.65;100019.12;1698463;79;21625;-56
2023/08/07 22:18:49;;;;;;;3.98;1.77;;;;;;;20.57;58.73;100025.88;1694476;80;21247;-56
2023/08/07 22:26:54;;;;;;;2.60;1.60;;;;;;;20.46;58.99;100032.33;1705500;79;21991;-56
2023/08/07 22:32:30;;;;;;;3.15;1.90;;;;;;;20.39;59.19;100026.09;1707198;80;21288;-56
2023/08/07 22:35:37;;;;;;;4.10;1.85;;;;;;;20.36;59.34;100016.86;1697765;79;21264;-56
2023/08/07 22:43:42;;;;;;;3.47;1.90;;;;;;;20.27;59.64;100024.73;1708798;80;21347;-56
2023/08/07 22:49:22;;;;;;;2.67;2.22;;;;;;;20.22;59.85;100030.73;1704756;80;21377;-57
2023/08/07 22:52:27;;;;;;;4.08;2.35;;;;;;;20.20;59.95;100026.80;1703118;80;21240;-58
2023/08/07 22:55:18;;;;;;;2.22;1.77;;;;;;;20.17;60.06;100027.87;1705434;79;21367;-57